Time;durP1;ratioP1;P1;durP2;ratioP2;P2;SDS_P1;SDS_P2;PMS_P1;PMS_P2;Temp;Humidity;BMP_temperature;BMP_pressure;BME280_temperature;BME280_humidity;BME280_pressure;Samples;Min_cycle;Max_cycle;Signal;HPM_P1;HPM_P2
2022/06/21 00:00:01;;;;;;;;;;;;;;;13.76;100.00;98497.78;3058000;19;1039;-48
2022/06/21 00:01:11;;;;;;;;;;;;;;;13.72;100.00;98501.78;3057584;19;1099;-48
2022/06/21 00:02:13;;;;;;;;;;;;;;;13.67;100.00;98504.94;3057992;19;981;-46
2022/06/21 00:03:20;;;;;;;;;;;;;;;13.75;100.00;98517.53;3057921;19;965;-47
2022/06/21 00:04:22;;;;;;;;;;;;;;;13.75;100.00;98504.13;3059194;19;1126;-47
2022/06/21 00:05:27;;;;;;;;;;;;;;;13.73;100.00;98505.28;3058960;19;1248;-47
2022/06/21 00:06:32;;;;;;;;;;;;;;;13.73;100.00;98498.09;3058186;19;996;-49
2022/06/21 00:07:33;;;;;;;;;;;;;;;13.73;100.00;98502.63;3057864;19;983;-48
2022/06/21 00:08:38;;;;;;;;;;;;;;;13.73;100.00;98494.56;3058404;19;1431;-48
2022/06/21 00:09:40;;;;;;;;;;;;;;;13.79;100.00;98502.78;3058532;19;1340;-48
2022/06/21 00:10:44;;;;;;;;;;;;;;;13.90;100.00;98499.78;3058856;19;940;-48
2022/06/21 00:11:46;;;;;;;;;;;;;;;13.82;100.00;98499.78;3058863;19;921;-48
2022/06/21 00:12:51;;;;;;;;;;;;;;;13.81;100.00;98508.00;3058101;19;1856;-49
2022/06/21 00:13:53;;;;;;;;;;;;;;;13.74;100.00;98504.28;3058977;19;893;-48
2022/06/21 00:14:57;;;;;;;;;;;;;;;13.76;100.00;98500.47;3058950;19;1011;-46
2022/06/21 00:16:01;;;;;;;;;;;;;;;13.78;100.00;98494.91;3058613;19;877;-47
2022/06/21 00:17:06;;;;;;;;;;;;;;;13.80;100.00;98501.78;3058815;19;968;-46
2022/06/21 00:18:11;;;;;;;;;;;;;;;13.83;100.00;98497.94;3057659;19;976;-47
2022/06/21 00:19:20;;;;;;;;;;;;;;;13.97;100.00;98490.13;3058257;19;877;-46
2022/06/21 00:20:22;;;;;;;;;;;;;;;14.03;100.00;98492.13;3057522;19;1256;-48
2022/06/21 00:21:28;;;;;;;;;;;;;;;13.96;100.00;98491.13;3057691;19;1288;-47
2022/06/21 00:22:30;;;;;;;;;;;;;;;13.97;100.00;98483.91;3057377;19;928;-48
2022/06/21 00:23:35;;;;;;;;;;;;;;;13.98;100.00;98481.06;3058508;19;969;-48
2022/06/21 00:24:37;;;;;;;;;;;;;;;13.95;100.00;98483.22;3058333;19;973;-48
2022/06/21 00:25:42;;;;;;;;;;;;;;;13.96;100.00;98479.53;3058630;19;940;-48
2022/06/21 00:26:44;;;;;;;;;;;;;;;14.06;100.00;98480.22;3058732;19;884;-47
2022/06/21 00:27:48;;;;;;;;;;;;;;;14.02;100.00;98473.50;3058688;19;969;-45
2022/06/21 00:28:50;;;;;;;;;;;;;;;14.06;100.00;98482.91;3058570;19;1727;-48
2022/06/21 00:29:54;;;;;;;;;;;;;;;14.08;100.00;98475.53;3058783;19;992;-46
2022/06/21 00:30:56;;;;;;;;;;;;;;;14.09;100.00;98479.06;3058439;19;975;-46
2022/06/21 00:32:01;;;;;;;;;;;;;;;14.03;100.00;98469.81;3058540;19;932;-49
2022/06/21 00:33:03;;;;;;;;;;;;;;;13.99;100.00;98472.03;3056883;19;1860;-46
2022/06/21 00:34:08;;;;;;;;;;;;;;;14.01;100.00;98467.31;3057727;19;862;-46
2022/06/21 00:35:11;;;;;;;;;;;;;;;13.97;100.00;98462.47;3057430;19;920;-49
2022/06/21 00:36:24;;;;;;;;;;;;;;;13.98;100.00;98464.97;3057470;19;897;-49
2022/06/21 00:37:26;;;;;;;;;;;;;;;13.99;100.00;98466.66;3058242;19;1391;-48
2022/06/21 00:38:31;;;;;;;;;;;;;;;13.92;100.00;98460.25;3058493;19;979;-49
2022/06/21 00:39:33;;;;;;;;;;;;;;;13.89;100.00;98467.78;3058341;19;1665;-48
2022/06/21 00:40:38;;;;;;;;;;;;;;;13.66;100.00;98470.25;3057799;19;897;-50
2022/06/21 00:41:57;;;;;;;;;;;;;;;13.60;100.00;98474.44;3058479;19;845;-47
2022/06/21 00:43:01;;;;;;;;;;;;;;;13.56;100.00;98459.66;3057939;19;1708;-49
2022/06/21 00:44:06;;;;;;;;;;;;;;;13.48;100.00;98469.53;3057409;19;965;-46
2022/06/21 00:45:12;;;;;;;;;;;;;;;13.32;100.00;98473.81;3057600;19;912;-46
2022/06/21 00:46:29;;;;;;;;;;;;;;;13.19;100.00;98475.25;3057342;19;972;-49
2022/06/21 00:47:33;;;;;;;;;;;;;;;13.16;100.00;98460.34;3056579;19;898;-48
2022/06/21 00:48:39;;;;;;;;;;;;;;;13.00;100.00;98446.88;3058386;19;973;-46
2022/06/21 00:49:48;;;;;;;;;;;;;;;13.01;100.00;98464.59;3056688;19;2340;-48
2022/06/21 00:51:07;;;;;;;;;;;;;;;13.00;100.00;98468.28;3059110;19;1111;-47
2022/06/21 00:52:18;;;;;;;;;;;;;;;12.91;100.00;98464.72;3057665;19;971;-47
2022/06/21 00:53:24;;;;;;;;;;;;;;;12.89;100.00;98463.19;3057554;19;1859;-45
2022/06/21 00:54:44;;;;;;;;;;;;;;;12.95;100.00;98465.22;3057565;19;1302;-49
2022/06/21 00:55:58;;;;;;;;;;;;;;;12.91;100.00;98454.00;3056950;19;1049;-46
2022/06/21 00:57:01;;;;;;;;;;;;;;;12.85;100.00;98459.16;3057326;19;969;-47
2022/06/21 00:58:06;;;;;;;;;;;;;;;12.84;100.00;98457.47;3056135;19;1046;-48
2022/06/21 00:59:20;;;;;;;;;;;;;;;12.83;100.00;98461.97;3057373;19;920;-46
2022/06/21 01:00:35;;;;;;;;;;;;;;;12.84;100.00;98465.50;3058078;19;1056;-49
2022/06/21 01:01:37;;;;;;;;;;;;;;;12.92;100.00;98460.22;3057916;19;1110;-49
2022/06/21 01:02:42;;;;;;;;;;;;;;;13.01;100.00;98469.97;3058350;19;920;-47
2022/06/21 01:03:51;;;;;;;;;;;;;;;13.03;100.00;98457.25;3058049;19;861;-49
2022/06/21 01:04:53;;;;;;;;;;;;;;;13.08;100.00;98457.59;3057891;19;1047;-48
2022/06/21 01:05:58;;;;;;;;;;;;;;;13.09;100.00;98461.97;3056592;19;977;-47
2022/06/21 01:07:00;;;;;;;;;;;;;;;13.07;100.00;98463.94;3057000;19;1256;-46
2022/06/21 01:08:05;;;;;;;;;;;;;;;13.13;100.00;98467.84;3057335;19;902;-46
2022/06/21 01:09:12;;;;;;;;;;;;;;;13.19;100.00;98461.88;3057133;19;1295;-49
2022/06/21 01:10:18;;;;;;;;;;;;;;;13.08;100.00;98465.63;3057244;19;815;-47
2022/06/21 01:11:21;;;;;;;;;;;;;;;13.13;100.00;98468.69;3057223;19;975;-46
2022/06/21 01:12:29;;;;;;;;;;;;;;;13.21;100.00;98460.72;3057225;19;1391;-45
2022/06/21 01:13:31;;;;;;;;;;;;;;;13.21;100.00;98460.72;3056977;19;1860;-48
2022/06/21 01:14:37;;;;;;;;;;;;;;;13.30;100.00;98462.41;3058298;19;813;-46
2022/06/21 01:15:40;;;;;;;;;;;;;;;13.26;100.00;98462.91;3057079;19;1390;-49
2022/06/21 01:16:45;;;;;;;;;;;;;;;13.25;100.00;98461.25;3056998;19;926;-48
2022/06/21 01:17:47;;;;;;;;;;;;;;;13.34;100.00;98455.75;3057888;19;977;-49
2022/06/21 01:18:52;;;;;;;;;;;;;;;13.39;100.00;98454.44;3057610;19;1767;-48
2022/06/21 01:19:57;;;;;;;;;;;;;;;13.40;100.00;98448.91;3057316;19;961;-48
2022/06/21 01:21:02;;;;;;;;;;;;;;;13.41;100.00;98445.22;3056517;19;986;-46
2022/06/21 01:22:06;;;;;;;;;;;;;;;13.44;100.00;98444.06;3057090;19;995;-48
2022/06/21 01:23:27;;;;;;;;;;;;;;;13.42;100.00;98438.84;3056455;19;1713;-47
2022/06/21 01:24:32;;;;;;;;;;;;;;;13.39;100.00;98446.41;3057170;19;881;-46
2022/06/21 01:26:03;;;;;;;;;;;;;;;13.37;100.00;98446.56;3057734;19;1119;-49
2022/06/21 01:27:04;;;;;;;;;;;;;;;13.20;100.00;98453.69;3055530;19;1161;-46
2022/06/21 01:28:09;;;;;;;;;;;;;;;13.13;100.00;98441.06;3057667;19;997;-46
2022/06/21 01:29:13;;;;;;;;;;;;;;;13.03;100.00;98443.03;3056684;19;937;-47
2022/06/21 01:30:18;;;;;;;;;;;;;;;13.06;100.00;98440.00;3056971;19;904;-47
2022/06/21 01:31:19;;;;;;;;;;;;;;;12.98;100.00;98438.97;3056573;19;1004;-48
2022/06/21 01:32:24;;;;;;;;;;;;;;;12.92;100.00;98441.47;3057084;19;912;-49
2022/06/21 01:33:32;;;;;;;;;;;;;;;12.80;100.00;98438.19;3057631;19;1846;-47
2022/06/21 01:34:39;;;;;;;;;;;;;;;12.72;100.00;98434.66;3058096;19;1015;-46
2022/06/21 01:35:47;;;;;;;;;;;;;;;12.65;100.00;98430.94;3057494;19;900;-48
2022/06/21 01:37:11;;;;;;;;;;;;;;;12.61;100.00;98425.88;3056876;19;931;-49
2022/06/21 01:38:15;;;;;;;;;;;;;;;12.57;100.00;98429.03;3056722;19;1032;-51
2022/06/21 01:39:24;;;;;;;;;;;;;;;12.52;100.00;98424.16;3056733;19;904;-48
2022/06/21 01:40:29;;;;;;;;;;;;;;;12.44;100.00;98432.13;3056842;19;965;-45
2022/06/21 01:41:44;;;;;;;;;;;;;;;12.35;100.00;98430.38;3056362;19;1725;-48
2022/06/21 01:42:50;;;;;;;;;;;;;;;12.33;100.00;98435.03;3057260;19;877;-49
2022/06/21 01:43:52;;;;;;;;;;;;;;;12.31;100.00;98434.38;3056629;19;1061;-47
2022/06/21 01:44:57;;;;;;;;;;;;;;;12.28;100.00;98432.00;3056816;19;1244;-47
2022/06/21 01:46:04;;;;;;;;;;;;;;;12.24;100.00;98435.97;3056471;19;960;-48
2022/06/21 01:47:12;;;;;;;;;;;;;;;12.19;100.00;98438.31;3056690;19;951;-45
2022/06/21 01:48:19;;;;;;;;;;;;;;;12.15;100.00;98432.41;3057021;19;882;-49
2022/06/21 01:49:24;;;;;;;;;;;;;;;12.12;100.00;98434.53;3057351;19;873;-46
2022/06/21 01:50:26;;;;;;;;;;;;;;;12.08;100.00;98439.34;3056357;19;1044;-47
2022/06/21 01:51:32;;;;;;;;;;;;;;;12.00;100.00;98441.13;3056132;19;834;-46
2022/06/21 01:52:34;;;;;;;;;;;;;;;12.01;100.00;98456.16;3056717;19;1686;-47
2022/06/21 01:53:39;;;;;;;;;;;;;;;11.99;100.00;98452.81;3056193;19;932;-48
2022/06/21 01:54:42;;;;;;;;;;;;;;;11.96;100.00;98450.44;3055389;19;1862;-46
2022/06/21 01:55:47;;;;;;;;;;;;;;;11.95;100.00;98446.94;3056317;19;854;-47
2022/06/21 01:56:48;;;;;;;;;;;;;;;11.94;100.00;98463.13;3055988;19;960;-49
2022/06/21 01:57:53;;;;;;;;;;;;;;;11.82;100.00;98458.00;3057298;19;931;-46
2022/06/21 01:59:07;;;;;;;;;;;;;;;11.84;100.00;98474.72;3056694;19;952;-46
2022/06/21 02:00:09;;;;;;;;;;;;;;;11.83;100.00;98475.69;3056387;19;1175;-46
2022/06/21 02:01:17;;;;;;;;;;;;;;;11.84;100.00;98477.38;3056645;19;995;-50
2022/06/21 02:02:27;;;;;;;;;;;;;;;11.88;100.00;98486.78;3057459;19;845;-46
2022/06/21 02:03:33;;;;;;;;;;;;;;;12.00;100.00;98481.22;3057453;19;1370;-47
2022/06/21 02:04:36;;;;;;;;;;;;;;;12.10;100.00;98484.66;3056750;19;1458;-50
2022/06/21 02:05:41;;;;;;;;;;;;;;;12.18;100.00;98476.72;3056637;19;936;-48
2022/06/21 02:06:44;;;;;;;;;;;;;;;12.30;100.00;98477.31;3055980;19;923;-46
2022/06/21 02:07:52;;;;;;;;;;;;;;;12.38;100.00;98477.38;3056657;19;993;-46
2022/06/21 02:08:55;;;;;;;;;;;;;;;12.47;100.00;98474.59;3055262;19;1038;-46
2022/06/21 02:10:06;;;;;;;;;;;;;;;12.57;100.00;98470.00;3054422;19;992;-49
2022/06/21 02:11:11;;;;;;;;;;;;;;;12.68;100.00;98468.09;3056116;19;1126;-48
2022/06/21 02:12:16;;;;;;;;;;;;;;;12.73;100.00;98471.13;3056235;19;905;-47
2022/06/21 02:13:19;;;;;;;;;;;;;;;12.73;100.00;98468.44;3056363;19;882;-49
2022/06/21 02:14:33;;;;;;;;;;;;;;;12.82;100.00;98471.00;3056812;19;1849;-49
2022/06/21 02:15:37;;;;;;;;;;;;;;;12.80;100.00;98466.84;3057182;19;953;-46
2022/06/21 02:16:45;;;;;;;;;;;;;;;12.93;100.00;98464.53;3055694;19;1173;-46
2022/06/21 02:17:47;;;;;;;;;;;;;;;12.97;100.00;98469.44;3056366;19;1318;-46
2022/06/21 02:18:55;;;;;;;;;;;;;;;12.97;100.00;98476.63;3055932;19;762;-47
2022/06/21 02:20:02;;;;;;;;;;;;;;;12.94;100.00;98466.22;3056199;19;1347;-46
2022/06/21 02:21:12;;;;;;;;;;;;;;;13.02;100.00;98466.28;3055911;19;1193;-45
2022/06/21 02:22:16;;;;;;;;;;;;;;;13.07;100.00;98466.63;3056246;19;932;-46
2022/06/21 02:23:22;;;;;;;;;;;;;;;13.10;100.00;98469.00;3055927;19;1773;-46
2022/06/21 02:24:28;;;;;;;;;;;;;;;13.10;100.00;98463.63;3056306;19;821;-49
2022/06/21 02:25:32;;;;;;;;;;;;;;;13.12;100.00;98467.00;3055844;19;857;-48
2022/06/21 02:26:34;;;;;;;;;;;;;;;13.14;100.00;98458.81;3056074;19;887;-45
2022/06/21 02:27:39;;;;;;;;;;;;;;;13.17;100.00;98459.34;3055768;19;996;-45
2022/06/21 02:28:41;;;;;;;;;;;;;;;13.18;100.00;98458.34;3056124;19;909;-49
2022/06/21 02:29:46;;;;;;;;;;;;;;;13.18;100.00;98461.03;3056128;19;904;-46
2022/06/21 02:30:49;;;;;;;;;;;;;;;13.22;100.00;98453.50;3056434;19;956;-48
2022/06/21 02:31:53;;;;;;;;;;;;;;;13.22;100.00;98461.56;3055735;19;1040;-48
2022/06/21 02:32:56;;;;;;;;;;;;;;;13.27;100.00;98462.75;3055989;19;949;-47
2022/06/21 02:34:02;;;;;;;;;;;;;;;13.28;100.00;98461.72;3055772;19;925;-48
2022/06/21 02:35:07;;;;;;;;;;;;;;;13.30;100.00;98457.06;3055510;19;1866;-47
2022/06/21 02:36:31;;;;;;;;;;;;;;;13.24;100.00;98459.56;3056694;19;931;-49
2022/06/21 02:37:33;;;;;;;;;;;;;;;13.27;100.00;98449.38;3055873;19;948;-47
2022/06/21 02:38:39;;;;;;;;;;;;;;;13.26;100.00;98457.56;3056304;19;853;-46
2022/06/21 02:39:41;;;;;;;;;;;;;;;13.31;100.00;98445.34;3055741;19;949;-49
2022/06/21 02:40:46;;;;;;;;;;;;;;;13.23;100.00;98439.97;3055916;19;960;-47
2022/06/21 02:41:50;;;;;;;;;;;;;;;13.22;100.00;98432.94;3055706;19;1201;-47
2022/06/21 02:42:55;;;;;;;;;;;;;;;13.29;100.00;98442.00;3056189;19;894;-47
2022/06/21 02:44:25;;;;;;;;;;;;;;;13.28;100.00;98440.31;3055746;19;1025;-49
2022/06/21 02:45:30;;;;;;;;;;;;;;;13.27;100.00;98443.16;3055755;19;1630;-45
2022/06/21 02:46:37;;;;;;;;;;;;;;;13.29;100.00;98439.31;3055682;19;1261;-49
2022/06/21 02:47:39;;;;;;;;;;;;;;;13.26;100.00;98442.34;3055427;19;924;-48
2022/06/21 02:48:45;;;;;;;;;;;;;;;13.16;100.00;98438.91;3055675;19;937;-47
2022/06/21 02:50:02;;;;;;;;;;;;;;;13.16;100.00;98436.25;3055579;19;953;-46
2022/06/21 02:51:08;;;;;;;;;;;;;;;13.19;100.00;98430.56;3055555;19;1031;-48
2022/06/21 02:52:11;;;;;;;;;;;;;;;13.21;100.00;98428.56;3055642;19;897;-48
2022/06/21 02:53:24;;;;;;;;;;;;;;;13.26;100.00;98442.34;3055917;19;965;-49
2022/06/21 02:54:33;;;;;;;;;;;;;;;13.27;100.00;98433.31;3056324;19;946;-47
2022/06/21 02:55:48;;;;;;;;;;;;;;;13.30;100.00;98435.63;3056553;19;1058;-46
2022/06/21 02:57:05;;;;;;;;;;;;;;;13.34;100.00;98439.66;3055413;19;1096;-45
2022/06/21 02:58:07;;;;;;;;;;;;;;;13.37;100.00;98427.81;3055723;19;864;-46
2022/06/21 02:59:12;;;;;;;;;;;;;;;13.45;100.00;98435.00;3056716;19;1371;-48
2022/06/21 03:00:15;;;;;;;;;;;;;;;13.39;100.00;98433.00;3055450;19;877;-48
2022/06/21 03:01:21;;;;;;;;;;;;;;;13.41;100.00;98439.00;3055564;19;1809;-47
2022/06/21 03:02:24;;;;;;;;;;;;;;;13.50;100.00;98438.06;3055802;19;992;-49
2022/06/21 03:03:30;;;;;;;;;;;;;;;13.54;100.00;98439.38;3056795;19;952;-46
2022/06/21 03:04:37;;;;;;;;;;;;;;;13.59;100.00;98431.72;3055345;19;1215;-48
2022/06/21 03:05:41;;;;;;;;;;;;;;;13.57;100.00;98429.19;3055763;19;977;-49
2022/06/21 03:06:43;;;;;;;;;;;;;;;13.66;100.00;98436.25;3056148;19;873;-46
2022/06/21 03:07:53;;;;;;;;;;;;;;;13.68;100.00;98431.56;3055441;19;1261;-46
2022/06/21 03:08:59;;;;;;;;;;;;;;;13.72;100.00;98426.72;3054778;19;1284;-47
2022/06/21 03:10:02;;;;;;;;;;;;;;;13.82;100.00;98427.41;3056159;19;849;-49
2022/06/21 03:11:06;;;;;;;;;;;;;;;13.80;100.00;98410.63;3056265;19;1082;-48
2022/06/21 03:12:10;;;;;;;;;;;;;;;13.92;100.00;98428.09;3055592;19;857;-49
2022/06/21 03:13:18;;;;;;;;;;;;;;;13.90;100.00;98419.34;3055366;19;904;-51
2022/06/21 03:14:21;;;;;;;;;;;;;;;13.91;100.00;98420.19;3056377;19;889;-46
2022/06/21 03:15:26;;;;;;;;;;;;;;;13.93;100.00;98419.03;3055669;19;1862;-48
2022/06/21 03:16:28;;;;;;;;;;;;;;;13.97;100.00;98417.72;3056092;19;911;-47
2022/06/21 03:17:38;;;;;;;;;;;;;;;14.03;100.00;98416.19;3055176;19;1104;-49
2022/06/21 03:18:44;;;;;;;;;;;;;;;14.01;100.00;98421.72;3055738;19;1129;-49
2022/06/21 03:19:54;;;;;;;;;;;;;;;13.98;100.00;98422.06;3055345;19;1074;-47
2022/06/21 03:20:56;;;;;;;;;;;;;;;14.02;100.00;98422.56;3054840;19;1023;-47
2022/06/21 03:22:01;;;;;;;;;;;;;;;14.11;100.00;98428.78;3055175;19;976;-47
2022/06/21 03:23:04;;;;;;;;;;;;;;;14.16;100.00;98418.38;3055304;19;952;-47
2022/06/21 03:24:10;;;;;;;;;;;;;;;14.26;100.00;98413.66;3055767;19;916;-47
2022/06/21 03:25:19;;;;;;;;;;;;;;;14.32;100.00;98413.00;3055093;19;969;-45
2022/06/21 03:26:24;;;;;;;;;;;;;;;14.37;100.00;98418.69;3055193;19;960;-46
2022/06/21 03:27:53;;;;;;;;;;;;;;;14.49;100.00;98409.31;3055220;19;956;-46
2022/06/21 03:28:57;;;;;;;;;;;;;;;14.63;100.00;98410.47;3055569;19;1929;-47
2022/06/21 03:30:00;;;;;;;;;;;;;;;14.63;100.00;98405.94;3055969;19;816;-47
2022/06/21 03:31:07;;;;;;;;;;;;;;;14.69;100.00;98362.31;3055131;19;1697;-48
2022/06/21 03:32:09;;;;;;;;;;;;;;;14.73;100.00;98357.44;3055184;19;1454;-50
2022/06/21 03:33:13;;;;;;;;;;;;;;;14.73;100.00;98352.09;3056230;19;924;-47
2022/06/21 03:34:17;;;;;;;;;;;;;;;14.78;100.00;98355.91;3055938;19;878;-46
2022/06/21 03:35:22;;;;;;;;;;;;;;;14.78;100.00;98350.53;3055181;19;1866;-49
2022/06/21 03:36:24;;;;;;;;;;;;;;;14.73;100.00;98341.34;3055167;19;836;-46
2022/06/21 03:37:29;;;;;;;;;;;;;;;14.69;100.00;98346.22;3055399;19;948;-50
2022/06/21 03:38:31;;;;;;;;;;;;;;;14.76;100.00;98347.19;3055167;19;1023;-48
2022/06/21 03:42:10;;;;;;;;;;;;;;;14.87;100.00;98343.28;3055749;19;909;-49
2022/06/21 03:43:16;;;;;;;;;;;;;;;14.88;100.00;98344.13;3055409;19;813;-47
2022/06/21 03:44:31;;;;;;;;;;;;;;;14.90;100.00;98350.16;3055135;19;878;-48
2022/06/21 03:45:34;;;;;;;;;;;;;;;14.87;100.00;98345.13;3054865;19;1055;-48
2022/06/21 03:46:40;;;;;;;;;;;;;;;14.71;100.00;98354.94;3054653;19;1000;-48
2022/06/21 03:47:44;;;;;;;;;;;;;;;14.65;100.00;98365.50;3055224;19;980;-46
2022/06/21 03:48:51;;;;;;;;;;;;;;;14.73;100.00;98358.25;3054971;19;1036;-47
2022/06/21 03:49:54;;;;;;;;;;;;;;;14.74;100.00;98359.09;3056376;19;1309;-50
2022/06/21 03:51:00;;;;;;;;;;;;;;;14.83;100.00;98357.25;3056120;19;1630;-45
2022/06/21 03:52:05;;;;;;;;;;;;;;;15.01;100.00;98369.41;3054815;19;820;-48
2022/06/21 03:53:12;;;;;;;;;;;;;;;14.98;100.00;98382.34;3054941;19;980;-47
2022/06/21 03:54:39;;;;;;;;;;;;;;;15.04;100.00;98392.41;3054838;19;1036;-48
2022/06/21 03:55:47;;;;;;;;;;;;;;;14.96;100.00;98392.44;3054639;19;1850;-49
2022/06/21 03:56:51;;;;;;;;;;;;;;;14.99;100.00;98389.41;3054881;19;905;-46
2022/06/21 03:57:59;;;;;;;;;;;;;;;15.05;100.00;98394.94;3055932;19;929;-49
2022/06/21 03:59:03;;;;;;;;;;;;;;;14.95;100.00;98409.56;3055704;19;984;-46
2022/06/21 04:00:07;;;;;;;;;;;;;;;14.95;100.00;98431.06;3055404;19;907;-46
2022/06/21 04:01:14;;;;;;;;;;;;;;;14.92;100.00;98431.41;3054759;19;993;-47
2022/06/21 04:02:18;;;;;;;;;;;;;;;14.82;100.00;98438.81;3055167;19;957;-48
2022/06/21 04:03:28;;;;;;;;;;;;;;;14.83;100.00;98443.16;3055529;19;961;-48
2022/06/21 04:04:55;;;;;;;;;;;;;;;14.71;100.00;98459.63;3055725;19;1813;-46
2022/06/21 04:06:10;;;;;;;;;;;;;;;14.79;100.00;98458.78;3055498;19;1224;-49
2022/06/21 04:07:29;;;;;;;;;;;;;;;14.65;100.00;98468.34;3056843;19;1263;-48
2022/06/21 04:08:46;;;;;;;;;;;;;;;14.53;100.00;98496.56;3054812;19;1189;-49
2022/06/21 04:10:20;;;;;;;;;;;;;;;14.49;100.00;98543.50;3054711;19;893;-49
2022/06/21 04:11:26;;;;;;;;;;;;;;;14.29;100.00;98607.34;3053433;19;1618;-46
2022/06/21 04:12:33;;;;;;;;;;;;;;;14.27;100.00;98635.34;3054793;19;1539;-49
2022/06/21 04:13:35;;;;;;;;;;;;;;;14.25;100.00;98656.97;3054712;19;1027;-48
2022/06/21 04:14:41;;;;;;;;;;;;;;;14.25;100.00;98733.97;3055504;19;976;-47
2022/06/21 04:15:46;;;;;;;;;;;;;;;14.25;100.00;98761.59;3054310;19;1885;-45
2022/06/21 04:17:01;;;;;;;;;;;;;;;14.15;100.00;98785.03;3054061;19;1547;-46
2022/06/21 04:18:06;;;;;;;;;;;;;;;14.32;100.00;98794.00;3055332;19;1488;-46
2022/06/21 04:19:13;;;;;;;;;;;;;;;14.32;100.00;98810.94;3054359;19;873;-51
2022/06/21 04:20:15;;;;;;;;;;;;;;;14.36;100.00;98817.69;3055216;19;1048;-47
2022/06/21 04:21:38;;;;;;;;;;;;;;;14.45;100.00;98810.56;3055302;19;885;-47
2022/06/21 04:22:42;;;;;;;;;;;;;;;14.49;100.00;98828.00;3055696;19;969;-51
2022/06/21 04:23:44;;;;;;;;;;;;;;;14.62;100.00;98836.47;3055497;19;898;-48
2022/06/21 04:24:50;;;;;;;;;;;;;;;14.73;100.00;98849.59;3055581;19;1068;-47
2022/06/21 04:25:52;;;;;;;;;;;;;;;14.71;100.00;98881.16;3054421;19;1258;-47
2022/06/21 04:27:07;;;;;;;;;;;;;;;14.83;100.00;98897.84;3054697;19;956;-51
2022/06/21 04:28:08;;;;;;;;;;;;;;;14.94;100.00;98902.09;3054631;19;932;-47
2022/06/21 04:29:16;;;;;;;;;;;;;;;14.88;100.00;98941.16;3054556;19;878;-47
2022/06/21 04:30:23;;;;;;;;;;;;;;;14.74;100.00;98955.16;3054876;19;940;-48
2022/06/21 04:31:30;;;;;;;;;;;;;;;14.77;100.00;98979.03;3054861;19;809;-47
2022/06/21 04:32:37;;;;;;;;;;;;;;;14.80;100.00;98996.66;3055358;19;1055;-48
2022/06/21 04:33:53;;;;;;;;;;;;;;;14.87;100.00;99008.44;3058552;19;1164;-49
2022/06/21 04:35:03;;;;;;;;;;;;;;;15.15;100.00;99012.66;3057669;19;940;-46
2022/06/21 04:36:12;;;;;;;;;;;;;;;15.55;100.00;99005.84;3057485;19;1850;-47
2022/06/21 04:37:15;;;;;;;;;;;;;;;15.75;100.00;99021.53;3057565;19;796;-49
2022/06/21 04:38:22;;;;;;;;;;;;;;;15.70;100.00;99057.97;3057343;19;891;-47
2022/06/21 04:39:32;;;;;;;;;;;;;;;15.76;100.00;99093.16;3057788;19;897;-48
2022/06/21 04:40:41;;;;;;;;;;;;;;;16.35;100.00;99141.63;3057111;19;1044;-48
2022/06/21 04:41:47;;;;;;;;;;;;;;;16.38;100.00;99152.09;3057639;19;877;-48
2022/06/21 04:42:59;;;;;;;;;;;;;;;16.95;100.00;99181.84;3057139;19;1031;-49
2022/06/21 04:44:16;;;;;;;;;;;;;;;17.41;100.00;99205.44;3057492;19;853;-49
2022/06/21 04:45:21;;;;;;;;;;;;;;;17.25;100.00;99270.19;3058444;19;1071;-46
2022/06/21 04:46:37;;;;;;;;;;;;;;;16.96;100.00;99291.34;3059290;19;1270;-47
2022/06/21 04:47:45;;;;;;;;;;;;;;;16.95;100.00;99281.56;3058560;19;869;-47
2022/06/21 04:49:03;;;;;;;;;;;;;;;17.01;100.00;99278.22;3057306;19;1011;-46
2022/06/21 04:50:11;;;;;;;;;;;;;;;16.84;100.00;99272.78;3057708;19;941;-48
2022/06/21 04:51:16;;;;;;;;;;;;;;;16.50;100.00;99293.50;3058098;19;1060;-48
2022/06/21 04:52:25;;;;;;;;;;;;;;;16.52;100.00;99283.41;3058213;19;995;-46
2022/06/21 04:53:39;;;;;;;;;;;;;;;16.52;100.00;99310.34;3057371;19;956;-46
2022/06/21 04:54:49;;;;;;;;;;;;;;;17.04;100.00;99291.34;3057453;19;953;-48
2022/06/21 04:55:51;;;;;;;;;;;;;;;17.07;100.00;99299.09;3058312;19;892;-47
2022/06/21 04:57:08;;;;;;;;;;;;;;;17.05;100.00;99322.69;3057244;19;1842;-48
2022/06/21 04:58:10;;;;;;;;;;;;;;;16.81;100.00;99332.38;3058024;19;953;-48
2022/06/21 04:59:27;;;;;;;;;;;;;;;16.31;100.00;99364.56;3057161;19;889;-49
2022/06/21 05:00:32;;;;;;;;;;;;;;;15.99;100.00;99367.88;3057904;19;1680;-49
2022/06/21 05:01:33;;;;;;;;;;;;;;;15.89;100.00;99356.38;3057810;19;875;-48
2022/06/21 05:02:49;;;;;;;;;;;;;;;15.65;100.00;99364.22;3058677;19;1786;-49
2022/06/21 05:03:51;;;;;;;;;;;;;;;15.68;100.00;99343.25;3057260;19;1386;-46
2022/06/21 05:04:58;;;;;;;;;;;;;;;15.71;100.00;99331.31;3057230;19;900;-47
2022/06/21 05:06:00;;;;;;;;;;;;;;;15.76;100.00;99337.09;3057304;19;1641;-46
2022/06/21 05:07:05;;;;;;;;;;;;;;;15.79;100.00;99344.84;3057123;19;944;-46
2022/06/21 05:08:09;;;;;;;;;;;;;;;15.93;100.00;99352.38;3057166;19;840;-48
2022/06/21 05:09:14;;;;;;;;;;;;;;;15.93;100.00;99368.50;3057176;19;1001;-47
2022/06/21 05:10:18;;;;;;;;;;;;;;;15.73;100.00;99378.56;3057924;19;1207;-47
2022/06/21 05:11:23;;;;;;;;;;;;;;;15.64;100.00;99378.66;3058526;19;1377;-47
2022/06/21 05:12:30;;;;;;;;;;;;;;;15.59;100.00;99392.56;3057292;19;881;-49
2022/06/21 05:13:42;;;;;;;;;;;;;;;15.16;100.00;99401.31;3057051;19;1020;-48
2022/06/21 05:14:45;;;;;;;;;;;;;;;14.97;100.00;99409.47;3058219;19;1164;-46
2022/06/21 05:15:50;;;;;;;;;;;;;;;14.77;100.00;99398.81;3057826;19;880;-47
2022/06/21 05:16:52;;;;;;;;;;;;;;;14.71;100.00;99388.69;3057436;19;1850;-48
2022/06/21 05:17:58;;;;;;;;;;;;;;;14.68;100.00;99386.28;3056941;19;1169;-46
2022/06/21 05:19:08;;;;;;;;;;;;;;;14.70;100.00;99357.44;3057232;19;1059;-46
2022/06/21 05:20:18;;;;;;;;;;;;;;;14.68;100.00;99334.41;3056718;19;965;-48
2022/06/21 05:21:32;;;;;;;;;;;;;;;14.75;100.00;99314.84;3058648;19;1406;-47
2022/06/21 05:22:38;;;;;;;;;;;;;;;14.65;100.00;99311.38;3057737;19;1210;-49
2022/06/21 05:23:40;;;;;;;;;;;;;;;14.56;100.00;99300.69;3058346;19;1364;-47
2022/06/21 05:24:46;;;;;;;;;;;;;;;14.64;100.00;99290.03;3058154;19;1236;-47
2022/06/21 05:25:48;;;;;;;;;;;;;;;14.64;100.00;99279.31;3058831;19;1458;-48
2022/06/21 05:26:58;;;;;;;;;;;;;;;14.52;100.00;99281.34;3056890;19;940;-49
2022/06/21 05:28:03;;;;;;;;;;;;;;;14.46;100.00;99271.22;3057058;19;1059;-49
2022/06/21 05:29:15;;;;;;;;;;;;;;;14.37;100.00;99266.69;3057632;19;1031;-49
2022/06/21 05:30:43;;;;;;;;;;;;;;;14.18;100.00;99259.56;3055666;19;1441;-45
2022/06/21 05:31:45;;;;;;;;;;;;;;;14.04;100.00;99258.22;3056370;19;1598;-47
2022/06/21 05:32:53;;;;;;;;;;;;;;;14.15;100.00;99264.38;3056496;19;977;-47
2022/06/21 05:33:59;;;;;;;;;;;;;;;14.01;100.00;99268.38;3056784;19;1020;-52
2022/06/21 05:35:10;;;;;;;;;;;;;;;13.97;100.00;99262.47;3056778;19;877;-47
2022/06/21 05:36:14;;;;;;;;;;;;;;;13.93;100.00;99246.81;3056925;19;1607;-49
2022/06/21 05:37:37;;;;;;;;;;;;;;;13.88;100.00;99263.34;3056013;19;1974;-48
2022/06/21 05:38:55;;;;;;;;;;;;;;;13.83;100.00;99262.94;3056438;19;985;-47
2022/06/21 05:39:57;;;;;;;;;;;;;;;13.90;100.00;99256.00;3056397;19;920;-49
2022/06/21 05:41:34;;;;;;;;;;;;;;;13.85;100.00;99262.78;3056789;19;1512;-48
2022/06/21 05:42:36;;;;;;;;;;;;;;;13.92;100.00;99263.88;3055886;19;1598;-48
2022/06/21 05:43:45;;;;;;;;;;;;;;;13.92;100.00;99270.09;3058186;19;953;-48
2022/06/21 05:44:52;;;;;;;;;;;;;;;14.04;100.00;99273.44;3057853;19;1244;-47
2022/06/21 05:46:03;;;;;;;;;;;;;;;14.24;100.00;99293.03;3056776;19;1606;-46
2022/06/21 05:47:10;;;;;;;;;;;;;;;14.17;100.00;99310.69;3058081;19;873;-49
2022/06/21 05:48:17;;;;;;;;;;;;;;;14.35;100.00;99304.44;3056509;19;977;-46
2022/06/21 05:49:23;;;;;;;;;;;;;;;14.32;100.00;99326.19;3056367;19;1004;-48
2022/06/21 05:50:30;;;;;;;;;;;;;;;14.18;100.00;99344.59;3056637;19;1580;-47
2022/06/21 05:51:32;;;;;;;;;;;;;;;14.17;100.00;99361.66;3057700;19;877;-48
2022/06/21 05:52:37;;;;;;;;;;;;;;;14.25;100.00;99377.91;3058460;19;1603;-48
2022/06/21 05:53:40;;;;;;;;;;;;;;;14.40;100.00;99371.09;3055008;19;854;-46